createdAt,value
2023-04-05T00:01:50.071Z,7.30
2023-04-05T00:06:57.561Z,8.95
2023-04-05T00:12:01.360Z,9.50
2023-04-05T00:17:05.118Z,8.02
2023-04-05T00:22:10.850Z,8.88
2023-04-05T00:27:14.561Z,9.15
2023-04-05T00:32:18.339Z,8.27
2023-04-05T00:37:24.013Z,9.07
2023-04-05T00:42:27.754Z,9.05
2023-04-05T00:47:31.569Z,9.65
2023-04-05T00:52:38.067Z,9.00
2023-04-05T00:57:42.232Z,10.18
2023-04-05T01:02:53.112Z,9.73
2023-04-05T01:08:09.057Z,10.50
2023-04-05T01:13:12.856Z,9.65
2023-04-05T01:18:16.622Z,11.07
2023-04-05T01:23:38.734Z,10.60
2023-04-05T01:28:58.267Z,10.73
2023-04-05T01:34:09.228Z,10.38
2023-04-05T01:39:15.882Z,10.65
2023-04-05T01:44:19.613Z,10.85
2023-04-05T01:49:25.499Z,10.52
2023-04-05T01:54:29.316Z,10.75
2023-04-05T01:59:33.342Z,10.70
2023-04-05T02:04:38.739Z,11.98
2023-04-05T02:09:42.536Z,10.57
2023-04-05T02:14:46.314Z,11.20
2023-04-05T02:19:53.036Z,11.15
2023-04-05T02:24:56.956Z,11.77
2023-04-05T02:30:00.630Z,10.40
2023-04-05T02:35:06.716Z,11.75
2023-04-05T02:40:14.993Z,11.60
2023-04-05T02:45:19.635Z,11.88
2023-04-05T02:50:25.396Z,11.80
2023-04-05T02:55:30.903Z,11.38
2023-04-05T03:00:34.792Z,12.65
2023-04-05T03:05:42.249Z,12.30
2023-04-05T03:10:47.503Z,12.25
2023-04-05T03:15:54.924Z,11.57
2023-04-05T03:21:01.184Z,12.23
2023-04-05T03:26:05.334Z,12.02
2023-04-05T03:31:11.915Z,12.70
2023-04-05T03:36:19.880Z,11.80
2023-04-05T03:41:26.438Z,11.57
2023-04-05T03:46:30.372Z,11.12
2023-04-05T03:51:35.563Z,11.48
2023-04-05T03:56:39.424Z,12.55
2023-04-05T04:01:44.859Z,13.85
2023-04-05T04:06:50.973Z,12.70
2023-04-05T04:11:56.800Z,14.45
2023-04-05T04:17:01.027Z,14.00
2023-04-05T04:22:10.089Z,13.80
2023-04-05T04:27:17.094Z,12.90
2023-04-05T04:32:26.776Z,12.52
2023-04-05T04:37:33.304Z,12.77
2023-04-05T04:42:39.148Z,12.32
2023-04-05T04:47:43.727Z,12.07
2023-04-05T04:52:52.241Z,9.23
2023-04-05T04:57:56.985Z,11.85
2023-04-05T05:03:00.777Z,11.80
2023-04-05T05:08:06.262Z,14.52
2023-04-05T05:13:11.148Z,12.73
2023-04-05T05:18:14.961Z,13.13
2023-04-05T05:23:21.470Z,12.98
2023-04-05T05:28:25.989Z,12.63
2023-04-05T05:33:29.709Z,13.90
2023-04-05T05:38:34.785Z,13.20
2023-04-05T05:43:38.541Z,13.60
2023-04-05T05:48:42.651Z,12.70
2023-04-05T05:53:48.219Z,12.13
2023-04-05T05:58:52.058Z,13.52
2023-04-05T06:03:56.003Z,12.95
2023-04-05T06:09:01.179Z,13.32
2023-04-05T06:14:04.952Z,13.25
2023-04-05T06:19:08.703Z,12.85
2023-04-05T06:24:13.815Z,13.05
2023-04-05T06:29:17.565Z,13.02
2023-04-05T06:34:21.312Z,12.70
2023-04-05T06:39:26.460Z,12.82
2023-04-05T06:44:30.149Z,12.30
2023-04-05T06:49:33.850Z,12.15
2023-04-05T06:54:39.994Z,12.02
2023-04-05T06:59:43.699Z,12.55
2023-04-05T07:04:48.409Z,10.73
2023-04-05T07:09:53.646Z,10.27
2023-04-05T07:14:57.366Z,9.35
2023-04-05T07:20:01.175Z,9.82
2023-04-05T07:25:09.576Z,10.02
2023-04-05T07:30:14.419Z,8.35
2023-04-05T07:35:18.241Z,7.85
2023-04-05T07:40:23.300Z,8.82
2023-04-05T07:45:27.323Z,8.07
2023-04-05T07:50:30.992Z,6.85
2023-04-05T07:55:39.071Z,7.30
2023-04-05T08:00:43.066Z,7.57
2023-04-05T08:05:46.990Z,6.05
2023-04-05T08:10:52.275Z,6.90
2023-04-05T08:15:57.298Z,8.02
2023-04-05T08:21:01.128Z,7.22
2023-04-05T08:26:07.795Z,7.45
2023-04-05T08:31:13.720Z,5.28
2023-04-05T08:36:17.694Z,6.25
2023-04-05T08:41:24.538Z,6.25
2023-04-05T08:46:28.683Z,6.30
2023-04-05T08:51:33.377Z,5.93
2023-04-05T08:56:40.280Z,5.37
2023-04-05T09:01:48.959Z,4.85
2023-04-05T09:06:53.579Z,5.37
2023-04-05T09:11:58.695Z,5.57
2023-04-05T09:17:03.981Z,5.28
2023-04-05T09:22:09.762Z,5.62
2023-04-05T09:27:16.100Z,5.65
2023-04-05T09:32:21.359Z,5.62
2023-04-05T09:37:25.338Z,5.70
2023-04-05T09:42:35.286Z,5.47
2023-04-05T09:47:39.027Z,5.57
2023-04-05T09:52:44.278Z,5.30
2023-04-05T09:57:49.421Z,5.53
2023-04-05T10:02:57.393Z,5.07
2023-04-05T10:08:02.196Z,5.22
2023-04-05T10:13:07.788Z,4.55
2023-04-05T10:18:14.911Z,4.95
2023-04-05T10:23:23.792Z,5.70
2023-04-05T10:28:32.839Z,5.28
2023-04-05T10:33:42.496Z,5.05
2023-04-05T10:39:00.012Z,5.87
2023-04-05T10:44:18.475Z,5.63
2023-04-05T10:49:35.485Z,5.05
2023-04-05T10:54:39.716Z,5.12
2023-04-05T10:59:47.691Z,5.05
2023-04-05T11:04:56.169Z,5.45
2023-04-05T11:10:02.612Z,5.62
2023-04-05T11:15:33.080Z,5.03
2023-04-05T11:20:44.737Z,5.55
2023-04-05T11:25:51.940Z,5.60
2023-04-05T11:30:59.085Z,4.93
2023-04-05T11:36:03.957Z,5.32
2023-04-05T11:41:13.192Z,4.65
2023-04-05T11:46:19.153Z,6.12
2023-04-05T11:51:25.497Z,5.82
2023-04-05T11:56:29.223Z,6.07
2023-04-05T12:01:34.322Z,5.32
2023-04-05T12:06:38.073Z,5.37
2023-04-05T12:11:42.001Z,5.72
2023-04-05T12:16:51.285Z,5.55
2023-04-05T12:21:55.356Z,5.28
2023-04-05T12:27:00.678Z,5.93
2023-04-05T12:32:06.680Z,5.87
2023-04-05T12:37:11.539Z,5.45
2023-04-05T12:42:18.788Z,6.00
2023-04-05T12:47:23.996Z,5.87
2023-04-05T12:52:28.472Z,5.95
2023-04-05T12:57:32.967Z,5.57
2023-04-05T13:02:38.138Z,5.20
2023-04-05T13:07:42.043Z,5.43
2023-04-05T13:12:46.567Z,6.20
2023-04-05T13:17:53.348Z,5.62
2023-04-05T13:22:57.220Z,5.43
2023-04-05T13:28:00.917Z,6.00
2023-04-05T13:33:06.095Z,6.05
2023-04-05T13:38:09.954Z,6.07
2023-04-05T13:43:14.472Z,5.75
2023-04-05T13:48:19.511Z,6.03
2023-04-05T13:53:23.472Z,5.20
2023-04-05T13:58:27.186Z,6.30
2023-04-05T14:03:32.460Z,6.00
2023-04-05T14:08:36.249Z,5.95
2023-04-05T14:13:40.411Z,5.90
2023-04-05T14:18:45.576Z,6.65
2023-04-05T14:23:50.487Z,6.25
2023-04-05T14:28:54.707Z,6.32
2023-04-05T14:34:00.772Z,6.00
2023-04-05T14:39:04.830Z,6.28
2023-04-05T14:44:08.650Z,5.95
2023-04-05T14:49:13.809Z,5.95
2023-04-05T14:54:18.515Z,5.75
2023-04-05T14:59:22.443Z,5.70
2023-04-05T15:04:27.790Z,5.90
2023-04-05T15:09:31.798Z,6.18
2023-04-05T15:14:35.611Z,6.10
2023-04-05T15:19:40.964Z,5.78
2023-04-05T15:24:44.856Z,6.93
2023-04-05T15:29:48.699Z,6.65
2023-04-05T15:34:53.927Z,6.60
2023-04-05T15:39:57.932Z,6.70
2023-04-05T15:45:01.912Z,6.68
2023-04-05T15:50:08.198Z,6.60
2023-04-05T15:55:12.036Z,7.35
2023-04-05T16:00:16.832Z,6.40
2023-04-05T16:05:22.236Z,7.18
2023-04-05T16:10:26.454Z,6.87
2023-04-05T16:15:30.566Z,7.28
2023-04-05T16:20:36.301Z,7.90
2023-04-05T16:25:40.176Z,6.95
2023-04-05T16:30:47.132Z,6.78
2023-04-05T16:40:56.880Z,6.82
2023-04-05T16:46:00.931Z,7.87
2023-04-05T16:51:07.239Z,7.50
2023-04-05T16:56:11.318Z,8.13
2023-04-05T17:01:15.773Z,7.70
2023-04-05T17:06:20.960Z,7.95
2023-04-05T17:11:24.849Z,8.57
2023-04-05T17:16:28.813Z,8.73
2023-04-05T17:21:35.388Z,8.35
2023-04-05T17:26:39.212Z,7.62
2023-04-05T17:31:44.406Z,8.73
2023-04-05T17:36:49.787Z,7.95
2023-04-05T17:41:55.898Z,8.88
2023-04-05T17:47:08.559Z,7.80
2023-04-05T17:52:14.905Z,9.57
2023-04-05T17:57:21.080Z,8.93
2023-04-05T18:02:24.979Z,9.15
2023-04-05T18:07:30.409Z,9.50
2023-04-05T18:12:34.324Z,8.85
2023-04-05T18:17:38.410Z,8.90
2023-04-05T18:22:43.807Z,9.38
2023-04-05T18:27:47.721Z,9.70
2023-04-05T18:32:51.932Z,9.07
2023-04-05T18:37:57.127Z,9.85
2023-04-05T18:43:01.151Z,9.93
2023-04-05T18:48:05.527Z,10.27
2023-04-05T18:53:11.023Z,10.50
2023-04-05T18:58:14.873Z,10.85
2023-04-05T19:03:18.821Z,10.02
2023-04-05T19:08:26.650Z,10.10
2023-04-05T19:13:30.480Z,11.47
2023-04-05T19:18:34.343Z,11.90
2023-04-05T19:23:39.760Z,12.57
2023-04-05T19:28:43.626Z,11.50
2023-04-05T19:33:47.499Z,11.68
2023-04-05T19:38:52.716Z,11.43
2023-04-05T19:43:57.298Z,11.60
2023-04-05T19:49:11.008Z,11.65
2023-04-05T19:54:19.336Z,11.00
2023-04-05T19:59:30.030Z,12.90
2023-04-05T20:04:38.905Z,11.63
2023-04-05T20:09:45.098Z,11.95
2023-04-05T20:14:49.109Z,11.12
2023-04-05T20:19:57.503Z,13.00
2023-04-05T20:30:11.721Z,13.95
2023-04-05T20:35:31.983Z,14.00
2023-04-05T20:40:37.158Z,13.73
2023-04-05T20:45:41.925Z,14.27
2023-04-05T20:50:45.844Z,14.70
2023-04-05T20:55:51.086Z,13.80
2023-04-05T21:00:55.059Z,15.27
2023-04-05T21:05:59.835Z,15.38
2023-04-05T21:11:05.999Z,16.23
2023-04-05T21:16:10.356Z,14.57
2023-04-05T21:21:14.195Z,16.50
2023-04-05T21:26:19.326Z,16.98
2023-04-05T21:31:23.187Z,15.20
2023-04-05T21:36:27.201Z,15.88
2023-04-05T21:41:32.342Z,14.52
2023-04-05T21:46:36.458Z,14.77
2023-04-05T21:51:40.877Z,15.27
2023-04-05T21:56:46.163Z,14.68
2023-04-05T22:01:50.013Z,14.00
2023-04-05T22:06:53.909Z,13.95
2023-04-05T22:11:59.748Z,14.87
2023-04-05T22:17:03.982Z,14.98
2023-04-05T22:22:07.814Z,13.75
2023-04-05T22:27:13.384Z,13.77
2023-04-05T22:32:17.184Z,12.55
2023-04-05T22:37:21.223Z,12.30
2023-04-05T22:42:26.391Z,10.77
2023-04-05T22:47:30.237Z,12.82
2023-04-05T22:52:34.093Z,11.52
2023-04-05T22:57:39.500Z,11.20
2023-04-05T23:02:43.600Z,11.27
2023-04-05T23:07:47.466Z,11.57
2023-04-05T23:12:52.643Z,12.35
2023-04-05T23:17:56.685Z,11.00
2023-04-05T23:23:01.561Z,11.07
2023-04-05T23:28:07.272Z,11.25
2023-04-05T23:33:13.105Z,11.43
2023-04-05T23:38:17.680Z,11.40
2023-04-05T23:43:22.857Z,11.70
2023-04-05T23:48:27.256Z,11.20
2023-04-05T23:53:31.459Z,10.38
2023-04-05T23:58:36.754Z,11.45
